Time;durP1;ratioP1;P1;durP2;ratioP2;P2;SDS_P1;SDS_P2;PMS_P1;PMS_P2;Temp;Humidity;BMP_temperature;BMP_pressure;BME280_temperature;BME280_humidity;BME280_pressure;Samples;Min_cycle;Max_cycle;Signal;HPM_P1;HPM_P2
2022/02/28 00:02:10;;;;;;;21.85;13.60;;;1.00;1.00;;;;;;5039989;28;20245;-84
2022/02/28 00:04:44;;;;;;;20.63;14.23;;;1.00;1.00;;;;;;5028691;28;20226;-87
2022/02/28 00:07:11;;;;;;;21.63;13.68;;;1.00;1.00;;;;;;5018424;28;20231;-86
2022/02/28 00:09:45;;;;;;;22.20;14.70;;;0.90;1.00;;;;;;5017452;28;20309;-85
2022/02/28 00:12:25;;;;;;;20.98;15.23;;;1.00;1.00;;;;;;5027381;28;20233;-92
2022/02/28 00:15:18;;;;;;;22.17;14.60;;;1.00;1.00;;;;;;5047471;28;20205;-92
2022/02/28 00:18:14;;;;;;;18.80;13.05;;;1.10;1.00;;;;;;5050287;28;20226;-92
2022/02/28 00:27:56;;;;;;;21.95;14.55;;;1.20;1.00;;;;;;4902543;28;20310;-87
2022/02/28 00:30:50;;;;;;;24.70;14.88;;;1.20;1.00;;;;;;4931559;28;20226;-89
2022/02/28 00:34:01;;;;;;;21.85;14.98;;;1.20;1.00;;;;;;4969697;28;20735;-88
2022/02/28 00:36:39;;;;;;;23.42;15.48;;;1.30;1.00;;;;;;5053356;23;20235;-89
2022/02/28 00:39:12;;;;;;;26.45;15.25;;;1.20;1.00;;;;;;5009025;28;20223;-88
2022/02/28 00:41:47;;;;;;;23.73;14.65;;;1.30;1.00;;;;;;5018147;28;20242;-93
2022/02/28 00:44:22;;;;;;;23.38;15.15;;;1.30;1.00;;;;;;5005111;28;20238;-89
2022/02/28 00:46:55;;;;;;;25.48;15.77;;;1.30;1.00;;;;;;5001186;28;21011;-87
2022/02/28 00:49:41;;;;;;;28.15;16.50;;;1.20;1.00;;;;;;4998987;28;20223;-87
2022/02/28 00:52:27;;;;;;;22.75;15.40;;;1.30;1.00;;;;;;5019433;28;20257;-87
2022/02/28 00:54:59;;;;;;;24.52;16.42;;;1.30;1.00;;;;;;4989930;28;20258;-87
2022/02/28 00:57:38;;;;;;;29.92;16.80;;;1.30;1.00;;;;;;4994741;28;20263;-89
2022/02/28 01:00:11;;;;;;;26.35;16.05;;;1.20;1.00;;;;;;4995900;28;20224;-89
2022/02/28 01:02:51;;;;;;;25.58;15.70;;;1.30;1.00;;;;;;5006361;28;20210;-88
2022/02/28 01:05:23;;;;;;;27.52;16.58;;;1.30;1.00;;;;;;4996738;28;20310;-88
2022/02/28 01:10:52;;;;;;;25.65;15.60;;;1.40;1.00;;;;;;4989417;28;20295;-89
2022/02/28 01:13:52;;;;;;;23.95;16.17;;;1.50;1.00;;;;;;4994378;28;20287;-88
2022/02/28 01:16:30;;;;;;;26.35;15.65;;;1.50;1.00;;;;;;5003657;28;20322;-90
2022/02/28 01:19:01;;;;;;;23.33;15.50;;;1.50;1.00;;;;;;4991965;28;20237;-90
2022/02/28 01:21:51;;;;;;;26.52;15.20;;;1.40;1.00;;;;;;5006048;28;20232;-89
2022/02/28 01:24:47;;;;;;;25.00;15.43;;;1.40;1.00;;;;;;4993710;28;20232;-88
2022/02/28 01:27:15;;;;;;;24.45;14.95;;;1.20;1.00;;;;;;4996089;28;20706;-89
2022/02/28 01:30:02;;;;;;;29.42;16.65;;;1.10;1.00;;;;;;5000522;28;20765;-89
2022/02/28 01:33:12;;;;;;;27.75;15.40;;;1.10;1.00;;;;;;4985760;28;20242;-89
2022/02/28 01:35:57;;;;;;;35.38;17.00;;;1.10;1.00;;;;;;5007238;28;20227;-89
2022/02/28 01:38:38;;;;;;;30.92;19.05;;;1.20;1.00;;;;;;4996844;28;20224;-87
2022/02/28 01:45:04;;;;;;;27.20;16.80;;;1.10;1.00;;;;;;4974599;28;20276;-88
2022/02/28 01:50:42;;;;;;;30.30;16.05;;;1.30;1.00;;;;;;5005813;28;20231;-88
2022/02/28 01:53:14;;;;;;;28.63;17.92;;;1.30;1.00;;;;;;4989265;28;20232;-90
2022/02/28 01:55:55;;;;;;;26.10;16.45;;;1.30;1.00;;;;;;5004336;28;20586;-89
2022/02/28 01:58:50;;;;;;;31.05;18.75;;;1.30;1.00;;;;;;4967969;28;20225;-91
2022/02/28 02:02:12;;;;;;;25.77;15.63;;;1.30;1.00;;;;;;4973802;28;20232;-86
2022/02/28 02:05:04;;;;;;;28.08;16.70;;;1.40;1.00;;;;;;4981698;28;20228;-92
2022/02/28 02:07:55;;;;;;;26.23;15.75;;;1.40;1.00;;;;;;4977993;28;20290;-88
2022/02/28 02:13:46;;;;;;;26.85;16.70;;;1.40;1.00;;;;;;4984136;28;20239;-88
2022/02/28 02:16:24;;;;;;;26.10;16.60;;;1.40;1.00;;;;;;4976103;28;21341;-88
2022/02/28 02:19:11;;;;;;;28.50;16.67;;;1.30;1.00;;;;;;4973374;28;20216;-90
2022/02/28 02:28:24;;;;;;;27.33;16.05;;;1.40;1.00;;;;;;4946148;28;20240;-88
2022/02/28 02:31:49;;;;;;;23.83;15.32;;;1.40;1.00;;;;;;4927732;28;20228;-89
2022/02/28 02:40:44;;;;;;;25.52;15.18;;;1.30;1.00;;;;;;4937649;28;20220;-88
2022/02/28 02:43:54;;;;;;;21.92;16.00;;;1.20;1.00;;;;;;4984294;28;20774;-92
2022/02/28 02:50:06;;;;;;;30.05;18.67;;;1.30;1.00;;;;;;4978922;28;20232;-89
2022/02/28 02:59:12;;;;;;;24.63;15.45;;;1.40;1.00;;;;;;4961535;28;20779;-89
2022/02/28 03:05:18;;;;;;;27.08;15.65;;;1.40;1.00;;;;;;4986340;28;20251;-92
2022/02/28 03:08:36;;;;;;;28.73;17.00;;;1.30;1.00;;;;;;5007851;28;20224;-91
2022/02/28 03:15:28;;;;;;;26.00;16.00;;;1.30;1.00;;;;;;4997635;28;20283;-93
2022/02/28 03:18:10;;;;;;;28.05;15.98;;;1.30;1.00;;;;;;5029142;23;20891;-82
2022/02/28 03:20:40;;;;;;;28.98;17.05;;;1.20;1.00;;;;;;4983314;28;20244;-86
2022/02/28 03:23:11;;;;;;;24.73;16.25;;;1.30;1.00;;;;;;4976397;28;20264;-87
2022/02/28 03:25:38;;;;;;;25.08;15.40;;;1.20;1.00;;;;;;4972219;28;20706;-86
2022/02/28 03:28:06;;;;;;;23.73;14.98;;;1.20;1.00;;;;;;4980443;28;20232;-85
2022/02/28 03:30:36;;;;;;;26.33;16.17;;;1.20;1.00;;;;;;4973829;28;20287;-87
2022/02/28 03:33:03;;;;;;;26.48;16.00;;;1.20;1.00;;;;;;4971832;28;20259;-85
2022/02/28 03:35:30;;;;;;;22.02;15.77;;;1.30;1.00;;;;;;4974669;28;20679;-85
2022/02/28 03:37:57;;;;;;;27.40;16.95;;;1.30;1.00;;;;;;4956136;28;20240;-85
2022/02/28 03:40:26;;;;;;;28.05;16.63;;;1.30;1.00;;;;;;4977716;28;21490;-86
2022/02/28 03:42:53;;;;;;;27.02;16.55;;;1.30;1.00;;;;;;4991791;28;20232;-85
2022/02/28 03:45:20;;;;;;;25.33;16.08;;;1.30;1.00;;;;;;5013116;28;20250;-84
2022/02/28 03:47:56;;;;;;;26.02;15.93;;;1.30;1.00;;;;;;4990723;28;20244;-83
2022/02/28 03:50:27;;;;;;;27.15;15.73;;;1.30;1.00;;;;;;4981834;28;20247;-85
2022/02/28 03:52:54;;;;;;;24.85;17.33;;;1.20;1.00;;;;;;4980997;28;20224;-84
2022/02/28 03:55:23;;;;;;;25.58;16.60;;;1.10;1.00;;;;;;4954463;28;20284;-84
2022/02/28 03:57:54;;;;;;;24.23;16.83;;;1.10;1.00;;;;;;4967764;28;20354;-85
2022/02/28 04:00:22;;;;;;;26.02;15.82;;;1.10;1.00;;;;;;4951896;28;20232;-84
2022/02/28 04:02:49;;;;;;;22.83;15.50;;;1.00;1.00;;;;;;4975149;28;20299;-87
2022/02/28 04:05:17;;;;;;;30.33;17.70;;;1.00;1.00;;;;;;4969050;28;20340;-86
2022/02/28 04:07:47;;;;;;;30.50;17.98;;;1.00;1.00;;;;;;4969771;28;20645;-86
2022/02/28 04:10:20;;;;;;;27.52;16.98;;;1.00;1.00;;;;;;4969989;28;20224;-85
2022/02/28 04:12:47;;;;;;;28.42;16.30;;;1.00;1.00;;;;;;4974883;28;20228;-86
2022/02/28 04:15:16;;;;;;;32.22;19.15;;;0.90;1.00;;;;;;4972280;28;20239;-86
2022/02/28 04:17:43;;;;;;;26.70;16.17;;;0.90;1.00;;;;;;4953916;28;21427;-87
2022/02/28 04:20:12;;;;;;;32.70;18.67;;;0.90;1.00;;;;;;4968797;28;20255;-85
2022/02/28 04:22:39;;;;;;;29.42;16.92;;;0.90;1.00;;;;;;4975164;28;20323;-85
2022/02/28 04:25:08;;;;;;;26.52;16.73;;;1.00;1.00;;;;;;4972698;28;21073;-86
2022/02/28 04:27:41;;;;;;;28.70;16.23;;;1.00;1.00;;;;;;4987764;28;20224;-85
2022/02/28 04:30:10;;;;;;;29.17;18.90;;;1.00;1.00;;;;;;4956719;28;20228;-86
2022/02/28 04:32:41;;;;;;;30.95;17.58;;;1.00;1.00;;;;;;4975896;28;20234;-86
2022/02/28 04:35:09;;;;;;;26.80;17.50;;;1.00;1.00;;;;;;4977909;28;20236;-86
2022/02/28 04:37:37;;;;;;;31.05;16.83;;;1.00;1.00;;;;;;4958842;28;20865;-88
2022/02/28 04:40:16;;;;;;;32.15;19.50;;;1.00;1.00;;;;;;4962987;28;20241;-87
2022/02/28 04:42:43;;;;;;;30.27;16.42;;;0.90;1.00;;;;;;4989130;28;20280;-84
2022/02/28 04:45:12;;;;;;;29.95;17.92;;;1.00;1.00;;;;;;4983474;28;20228;-85
2022/02/28 04:47:41;;;;;;;31.30;18.88;;;1.00;1.00;;;;;;4978292;28;20753;-86
2022/02/28 04:50:08;;;;;;;32.13;18.83;;;1.00;1.00;;;;;;4952693;28;23458;-86
2022/02/28 04:52:36;;;;;;;31.23;18.45;;;1.00;1.00;;;;;;4977086;28;20251;-87
2022/02/28 04:55:05;;;;;;;28.33;17.48;;;1.00;1.00;;;;;;4971864;28;20544;-85
2022/02/28 04:57:38;;;;;;;38.45;18.60;;;1.00;1.00;;;;;;4975609;28;20219;-87
2022/02/28 05:00:07;;;;;;;28.13;18.52;;;1.00;1.00;;;;;;4968100;28;20228;-84
2022/02/28 05:02:37;;;;;;;29.52;18.30;;;1.00;1.00;;;;;;4967829;28;20223;-87
2022/02/28 05:05:12;;;;;;;33.75;16.95;;;1.10;1.00;;;;;;4972369;28;20236;-87
2022/02/28 05:07:50;;;;;;;31.25;18.77;;;1.20;1.00;;;;;;4960281;28;20230;-85
2022/02/28 05:10:23;;;;;;;29.50;17.15;;;1.00;1.00;;;;;;4970557;28;20237;-85
2022/02/28 05:12:52;;;;;;;29.42;17.50;;;1.10;1.00;;;;;;4977112;28;20508;-85
2022/02/28 05:15:20;;;;;;;26.88;18.00;;;1.00;1.00;;;;;;4974441;28;20288;-85
2022/02/28 05:17:50;;;;;;;31.65;17.45;;;1.00;1.00;;;;;;4978792;28;20255;-88
2022/02/28 05:23:38;;;;;;;29.60;17.10;;;1.10;1.00;;;;;;4976318;28;20248;-84
2022/02/28 05:26:08;;;;;;;32.60;17.90;;;1.20;1.00;;;;;;5002488;28;20256;-82
2022/02/28 05:29:01;;;;;;;33.13;18.52;;;1.20;1.00;;;;;;5010306;28;20239;-88
2022/02/28 05:31:29;;;;;;;27.33;18.33;;;1.20;1.00;;;;;;5006522;28;20226;-88
2022/02/28 05:34:05;;;;;;;34.00;19.98;;;1.20;1.00;;;;;;5008577;28;20272;-89
2022/02/28 05:36:34;;;;;;;29.70;17.95;;;1.30;1.00;;;;;;4986031;28;21365;-82
2022/02/28 05:39:01;;;;;;;29.65;18.40;;;1.20;1.00;;;;;;5000261;28;20224;-87
2022/02/28 05:46:53;;;;;;;30.15;17.50;;;1.20;1.00;;;;;;5372048;22;20256;-90
2022/02/28 05:49:21;;;;;;;32.47;19.52;;;1.20;1.00;;;;;;5007508;28;20269;-87
2022/02/28 05:51:56;;;;;;;34.40;20.77;;;1.20;1.00;;;;;;4995640;28;20809;-86
2022/02/28 05:54:26;;;;;;;27.90;18.75;;;1.30;1.00;;;;;;4997248;28;20228;-86
2022/02/28 05:56:54;;;;;;;28.75;17.88;;;1.30;1.00;;;;;;4988639;28;20223;-87
2022/02/28 05:59:21;;;;;;;32.53;18.10;;;1.30;1.00;;;;;;4995697;28;20231;-87
2022/02/28 06:01:48;;;;;;;34.05;19.25;;;1.30;1.00;;;;;;5026094;28;20215;-87
2022/02/28 06:04:15;;;;;;;35.53;18.35;;;1.30;1.00;;;;;;5019073;28;20243;-87
2022/02/28 06:06:42;;;;;;;28.83;19.15;;;1.30;1.00;;;;;;5004249;28;20302;-87
2022/02/28 06:09:11;;;;;;;32.33;17.95;;;1.30;1.00;;;;;;5005978;28;21627;-87
2022/02/28 06:11:43;;;;;;;26.98;16.92;;;1.30;1.00;;;;;;5001858;28;20584;-85
2022/02/28 06:14:22;;;;;;;27.88;15.85;;;1.20;1.00;;;;;;5004878;28;20305;-87
2022/02/28 06:16:52;;;;;;;29.23;18.25;;;1.20;1.00;;;;;;4999935;28;20639;-88
2022/02/28 06:22:57;;;;;;;30.77;19.27;;;1.20;1.00;;;;;;5027354;23;20253;-88
2022/02/28 06:25:33;;;;;;;26.40;16.50;;;1.30;1.00;;;;;;5019479;28;20420;-89
2022/02/28 06:28:13;;;;;;;32.33;20.48;;;1.30;1.00;;;;;;5024043;28;20241;-89
2022/02/28 06:30:42;;;;;;;28.02;17.92;;;1.40;1.00;;;;;;5021587;28;20294;-89
2022/02/28 06:33:28;;;;;;;36.15;19.65;;;1.40;1.00;;;;;;5007673;28;20266;-89
2022/02/28 06:36:01;;;;;;;33.55;19.63;;;1.50;1.00;;;;;;5028793;28;20253;-89
2022/02/28 06:41:39;;;;;;;33.47;18.98;;;1.60;1.00;;;;;;4995235;28;20242;-89
2022/02/28 06:44:34;;;;;;;29.95;19.20;;;1.60;1.00;;;;;;5027530;28;20227;-89
2022/02/28 06:47:33;;;;;;;28.58;20.35;;;1.70;1.00;;;;;;5022709;28;20223;-90
2022/02/28 06:53:09;;;;;;;26.50;17.65;;;1.70;1.00;;;;;;5000252;28;20289;-90
2022/02/28 06:55:58;;;;;;;30.52;18.90;;;1.80;1.00;;;;;;5013323;28;20231;-89
2022/02/28 06:58:57;;;;;;;36.40;20.08;;;2.00;1.00;;;;;;5028805;28;20219;-91
2022/02/28 07:01:27;;;;;;;30.70;18.48;;;2.00;1.00;;;;;;5010534;28;20758;-88
2022/02/28 07:03:54;;;;;;;33.60;18.90;;;2.00;1.00;;;;;;5010532;28;20235;-87
2022/02/28 07:06:24;;;;;;;28.58;18.25;;;1.90;1.00;;;;;;5019105;28;20242;-88
2022/02/28 07:08:52;;;;;;;34.88;18.13;;;1.90;1.00;;;;;;5020691;28;20250;-86
2022/02/28 07:11:19;;;;;;;31.90;19.75;;;1.90;1.00;;;;;;5016987;28;20219;-87
2022/02/28 07:13:51;;;;;;;25.52;17.30;;;1.90;1.00;;;;;;5019152;28;20247;-86
2022/02/28 07:16:18;;;;;;;40.92;21.00;;;2.00;1.00;;;;;;5010349;28;20219;-86
2022/02/28 07:18:46;;;;;;;30.23;18.58;;;1.90;1.00;;;;;;5011574;28;20223;-86
2022/02/28 07:21:13;;;;;;;28.08;17.15;;;1.90;1.00;;;;;;5010361;28;20298;-87
2022/02/28 07:23:40;;;;;;;31.40;17.48;;;1.90;1.00;;;;;;5016182;28;20238;-88
2022/02/28 07:26:07;;;;;;;29.20;18.10;;;1.90;1.00;;;;;;5016415;28;20234;-87
2022/02/28 07:28:39;;;;;;;32.67;19.42;;;1.90;1.00;;;;;;5017729;28;20231;-87
2022/02/28 07:31:07;;;;;;;29.95;18.73;;;2.00;1.00;;;;;;5014813;28;20710;-87
2022/02/28 07:33:34;;;;;;;32.58;19.63;;;1.80;1.00;;;;;;5013742;28;20313;-88
2022/02/28 07:36:06;;;;;;;31.65;21.00;;;1.90;1.00;;;;;;5026013;28;20223;-89
2022/02/28 07:38:36;;;;;;;28.35;18.75;;;1.80;1.00;;;;;;5025495;28;20346;-86
2022/02/28 07:41:13;;;;;;;29.60;18.77;;;1.90;1.00;;;;;;5022960;28;20270;-87
2022/02/28 08:15:51;;;;;;;29.23;19.02;;;2.70;1.00;;;;;;5482280;22;20241;-89
2022/02/28 08:18:21;;;;;;;28.92;20.02;;;2.80;1.00;;;;;;5002284;28;20223;-87
2022/02/28 08:20:50;;;;;;;35.15;20.90;;;2.80;1.00;;;;;;4999526;28;20305;-88
2022/02/28 08:23:29;;;;;;;46.90;29.17;;;2.90;1.00;;;;;;4989382;28;20337;-87
2022/02/28 08:26:04;;;;;;;33.63;21.48;;;2.90;1.00;;;;;;4991966;28;20261;-88
2022/02/28 08:28:31;;;;;;;33.90;20.13;;;2.90;1.00;;;;;;4987327;28;20446;-88
2022/02/28 08:31:21;;;;;;;33.63;22.15;;;3.00;1.00;;;;;;4986127;28;20294;-85
2022/02/28 08:33:54;;;;;;;39.15;24.90;;;3.00;1.00;;;;;;4996915;28;20217;-86
2022/02/28 08:36:23;;;;;;;39.30;23.35;;;3.10;1.00;;;;;;4995798;28;20235;-89
2022/02/28 08:41:42;;;;;;;38.80;24.45;;;3.20;1.00;;;;;;4996266;28;20220;-87
2022/02/28 08:44:10;;;;;;;33.17;21.92;;;3.30;1.00;;;;;;4994937;28;20228;-88
2022/02/28 08:46:38;;;;;;;34.55;21.30;;;3.20;1.00;;;;;;5001082;28;20246;-86
2022/02/28 08:49:07;;;;;;;33.72;22.50;;;3.30;1.00;;;;;;5002398;28;20239;-86
2022/02/28 08:51:37;;;;;;;35.25;22.98;;;3.40;1.00;;;;;;5014965;28;20216;-87
2022/02/28 08:54:10;;;;;;;39.65;23.17;;;3.70;1.00;;;;;;5005806;28;20409;-88
2022/02/28 08:56:51;;;;;;;35.78;22.30;;;4.10;1.00;;;;;;5020409;28;20244;-87
2022/02/28 08:59:22;;;;;;;34.58;22.10;;;4.30;1.00;;;;;;5001311;28;20225;-88
2022/02/28 09:01:50;;;;;;;36.65;22.20;;;4.10;1.00;;;;;;4987271;28;20247;-85
2022/02/28 09:04:25;;;;;;;46.25;26.15;;;3.80;1.00;;;;;;4985967;28;20248;-85
2022/02/28 09:06:59;;;;;;;37.03;23.08;;;3.70;1.00;;;;;;4990192;28;20235;-86
2022/02/28 09:09:34;;;;;;;34.40;22.85;;;3.70;1.00;;;;;;4989694;28;20228;-86
2022/02/28 09:12:01;;;;;;;36.97;24.10;;;3.80;1.00;;;;;;4992147;28;20251;-81
2022/02/28 09:14:27;;;;;;;36.30;22.85;;;4.60;1.00;;;;;;4988804;28;20212;-82
2022/02/28 09:20:40;;;;;;;34.58;21.58;;;7.70;1.00;;;;;;4977336;28;20224;-83
2022/02/28 09:23:09;;;;;;;35.10;23.48;;;8.40;1.00;;;;;;4984070;28;20553;-83
2022/02/28 09:25:36;;;;;;;31.95;19.85;;;7.90;1.00;;;;;;4987027;28;20320;-84
2022/02/28 09:28:04;;;;;;;29.63;20.13;;;7.90;1.00;;;;;;4985121;28;20717;-83
2022/02/28 09:30:31;;;;;;;25.40;18.38;;;8.70;1.00;;;;;;4991894;28;20232;-83
2022/02/28 09:33:02;;;;;;;28.35;18.85;;;9.30;1.00;;;;;;4990554;28;21115;-80
2022/02/28 09:35:34;;;;;;;25.60;19.17;;;8.90;1.00;;;;;;4991329;28;20224;-84
2022/02/28 09:38:01;;;;;;;31.03;20.50;;;9.50;1.00;;;;;;4991611;28;20227;-80
2022/02/28 09:40:30;;;;;;;27.30;18.53;;;10.60;1.00;;;;;;4978196;28;20467;-79
2022/02/28 09:43:00;;;;;;;26.03;19.60;;;11.10;1.00;;;;;;4981539;28;20479;-79
2022/02/28 09:45:27;;;;;;;33.30;22.07;;;10.80;1.00;;;;;;4982404;28;20475;-81
2022/02/28 09:47:55;;;;;;;29.60;21.35;;;10.90;1.00;;;;;;4979993;28;21686;-79
2022/02/28 09:50:25;;;;;;;29.60;21.83;;;9.90;1.00;;;;;;4989590;28;20311;-81
2022/02/28 09:52:52;;;;;;;33.10;21.10;;;9.20;1.00;;;;;;4982299;28;20450;-81
2022/02/28 09:55:19;;;;;;;31.98;23.40;;;8.80;1.00;;;;;;4982612;28;20464;-81
2022/02/28 09:57:47;;;;;;;35.90;25.10;;;9.30;1.00;;;;;;4983420;28;20343;-80
2022/02/28 10:00:18;;;;;;;29.98;22.77;;;9.60;1.00;;;;;;4980573;28;20423;-80
2022/02/28 10:02:45;;;;;;;29.35;22.80;;;10.00;1.00;;;;;;4975701;28;20235;-81
2022/02/28 10:05:11;;;;;;;29.90;22.70;;;10.10;1.00;;;;;;4977989;28;20217;-79
2022/02/28 10:07:50;;;;;;;33.33;23.53;;;10.60;1.00;;;;;;4983735;28;20442;-79
2022/02/28 10:10:18;;;;;;;35.13;24.40;;;10.70;1.00;;;;;;4987540;28;20487;-82
2022/02/28 10:12:46;;;;;;;33.60;24.40;;;10.80;1.00;;;;;;4989462;28;20528;-85
2022/02/28 10:15:15;;;;;;;39.37;29.30;;;11.00;1.00;;;;;;5005900;28;20411;-83
2022/02/28 10:17:45;;;;;;;41.53;28.80;;;11.20;1.00;;;;;;5005625;28;20436;-81
2022/02/28 10:20:21;;;;;;;36.72;26.45;;;10.20;1.00;;;;;;5009111;28;20473;-80
2022/02/28 10:22:53;;;;;;;37.83;27.00;;;10.00;1.00;;;;;;4991980;28;20211;-80
2022/02/28 10:25:31;;;;;;;34.20;25.10;;;9.70;1.00;;;;;;4990532;28;20545;-81
2022/02/28 10:28:14;;;;;;;39.92;26.15;;;9.20;1.00;;;;;;4987318;28;20435;-81
2022/02/28 10:30:49;;;;;;;38.90;27.13;;;9.10;1.00;;;;;;4987578;28;20351;-82
2022/02/28 10:33:16;;;;;;;38.67;27.37;;;10.30;1.00;;;;;;4995980;28;20479;-82
2022/02/28 10:36:10;;;;;;;31.37;23.80;;;11.90;1.00;;;;;;4999145;28;20461;-81
2022/02/28 10:38:43;;;;;;;35.67;26.80;;;12.50;1.00;;;;;;4994360;28;20470;-82
2022/02/28 10:41:21;;;;;;;31.47;24.77;;;12.50;1.00;;;;;;4977998;28;20452;-83
2022/02/28 10:43:49;;;;;;;31.27;24.47;;;12.30;1.00;;;;;;4982372;28;20444;-83
2022/02/28 10:46:20;;;;;;;31.70;25.10;;;12.30;1.00;;;;;;4981912;28;20982;-83
2022/02/28 10:48:59;;;;;;;32.50;25.10;;;12.10;1.00;;;;;;4987909;28;21344;-82
2022/02/28 10:51:27;;;;;;;29.80;23.47;;;11.90;1.00;;;;;;4974596;28;20448;-83
2022/02/28 10:54:18;;;;;;;33.00;24.40;;;12.10;1.00;;;;;;4987054;28;20447;-83
2022/02/28 10:56:51;;;;;;;27.67;21.70;;;13.10;1.00;;;;;;4995500;28;20412;-83
2022/02/28 10:59:41;;;;;;;28.50;22.47;;;13.40;1.00;;;;;;4977778;28;20494;-83
2022/02/28 11:02:23;;;;;;;28.40;22.20;;;13.00;1.00;;;;;;4981972;28;20601;-84
2022/02/28 11:05:11;;;;;;;26.77;19.53;;;12.80;1.00;;;;;;4979181;28;20481;-83
2022/02/28 11:07:43;;;;;;;25.87;21.10;;;13.10;1.00;;;;;;4980624;28;20473;-84
2022/02/28 11:10:14;;;;;;;28.00;21.43;;;13.80;1.00;;;;;;4978698;28;20548;-83
2022/02/28 11:12:45;;;;;;;26.70;21.40;;;14.50;1.00;;;;;;4975224;28;20441;-84
2022/02/28 11:15:25;;;;;;;29.47;20.37;;;15.30;1.00;;;;;;4987222;28;20462;-84
2022/02/28 11:17:55;;;;;;;26.13;19.93;;;15.30;1.00;;;;;;4986920;28;20427;-83
2022/02/28 11:20:25;;;;;;;20.47;17.40;;;15.50;1.00;;;;;;4983674;28;20467;-84
2022/02/28 11:23:04;;;;;;;22.30;16.67;;;16.00;1.00;;;;;;4985386;28;21794;-83
2022/02/28 11:25:38;;;;;;;20.93;15.70;;;14.90;1.00;;;;;;4990709;28;20587;-83
2022/02/28 11:30:47;;;;;;;20.87;17.20;;;14.60;1.00;;;;;;4982559;28;20707;-83
2022/02/28 11:33:16;;;;;;;19.20;15.83;;;15.00;1.00;;;;;;4975769;28;20440;-83
2022/02/28 11:35:48;;;;;;;21.40;15.73;;;15.60;1.00;;;;;;4980309;28;20527;-84
2022/02/28 11:38:42;;;;;;;18.67;13.93;;;16.20;1.00;;;;;;4983495;28;20409;-84
2022/02/28 11:41:11;;;;;;;16.70;13.70;;;17.00;1.00;;;;;;4986807;28;20523;-82
2022/02/28 11:43:40;;;;;;;14.90;12.53;;;18.10;1.00;;;;;;4992921;28;20416;-83
2022/02/28 11:46:20;;;;;;;15.63;13.93;;;18.80;1.00;;;;;;4979989;28;20478;-83
2022/02/28 11:48:50;;;;;;;19.13;15.07;;;19.50;1.00;;;;;;4979832;28;20430;-83
2022/02/28 11:51:28;;;;;;;18.30;15.83;;;19.90;1.00;;;;;;4979652;28;20460;-82
2022/02/28 11:53:57;;;;;;;18.60;15.60;;;19.80;1.00;;;;;;4979215;28;20457;-82
2022/02/28 11:56:58;;;;;;;16.50;14.17;;;20.10;1.00;;;;;;4981029;28;20459;-84
2022/02/28 11:59:42;;;;;;;17.27;14.30;;;20.00;1.00;;;;;;4981226;28;20508;-84
2022/02/28 12:02:11;;;;;;;17.00;14.43;;;20.50;1.00;;;;;;4986320;28;20514;-84
2022/02/28 12:04:43;;;;;;;18.90;14.73;;;20.60;1.00;;;;;;4993535;28;20443;-82
2022/02/28 12:07:23;;;;;;;15.80;13.20;;;20.90;1.00;;;;;;4981859;28;21751;-83
2022/02/28 12:09:50;;;;;;;16.20;13.60;;;21.10;1.00;;;;;;4976911;28;20467;-82
2022/02/28 12:12:21;;;;;;;15.40;12.50;;;21.00;1.00;;;;;;4980295;28;20498;-83
2022/02/28 12:15:13;;;;;;;19.53;17.50;;;21.00;1.00;;;;;;4980713;28;20449;-82
2022/02/28 12:17:59;;;;;;;13.27;11.90;;;20.80;1.00;;;;;;4981397;28;20478;-83
2022/02/28 12:20:28;;;;;;;16.60;13.43;;;20.70;1.00;;;;;;4996098;28;20431;-81
2022/02/28 12:23:09;;;;;;;14.73;12.60;;;20.70;1.00;;;;;;5011303;28;20431;-82
2022/02/28 12:25:39;;;;;;;30.30;22.33;;;20.90;1.00;;;;;;5012445;28;20451;-83
2022/02/28 12:28:21;;;;;;;20.07;13.80;;;21.50;1.00;;;;;;5002761;28;20532;-82
2022/02/28 12:30:51;;;;;;;14.70;11.73;;;22.10;1.00;;;;;;4986706;28;20546;-82
2022/02/28 12:33:20;;;;;;;17.50;12.40;;;22.70;1.00;;;;;;4978354;28;20695;-82
2022/02/28 12:35:52;;;;;;;13.70;12.17;;;22.00;1.00;;;;;;4977388;28;20506;-84
2022/02/28 12:38:20;;;;;;;12.30;11.00;;;21.30;1.00;;;;;;4985787;28;20898;-81
2022/02/28 12:40:48;;;;;;;13.87;12.27;;;21.60;1.00;;;;;;4984302;28;20574;-83
2022/02/28 12:43:21;;;;;;;16.63;13.33;;;22.10;1.00;;;;;;4982963;28;20513;-82
2022/02/28 12:45:53;;;;;;;15.23;12.40;;;22.30;1.00;;;;;;4990143;28;20450;-82
2022/02/28 12:48:21;;;;;;;14.10;11.30;;;22.50;1.00;;;;;;4987784;28;21088;-81
2022/02/28 12:50:51;;;;;;;12.10;10.80;;;21.60;1.00;;;;;;4988712;28;20543;-84
2022/02/28 12:53:18;;;;;;;16.73;12.17;;;21.20;1.00;;;;;;4975384;28;20888;-84
2022/02/28 12:55:53;;;;;;;14.73;10.97;;;20.70;1.00;;;;;;4984333;28;20449;-85
2022/02/28 12:58:24;;;;;;;13.53;11.53;;;20.90;1.00;;;;;;4983366;28;20463;-85
2022/02/28 13:00:52;;;;;;;16.30;11.87;;;20.90;1.00;;;;;;4980872;28;21359;-85
2022/02/28 13:03:18;;;;;;;13.00;9.50;;;20.20;1.00;;;;;;4980941;28;20469;-84
2022/02/28 13:05:58;;;;;;;11.70;8.90;;;19.00;1.00;;;;;;4987185;28;20454;-86
2022/02/28 13:08:25;;;;;;;11.40;7.20;;;18.10;1.00;;;;;;4999609;28;20469;-85
2022/02/28 13:11:13;;;;;;;8.97;5.23;;;18.10;1.00;;;;;;4989280;28;20456;-86
2022/02/28 13:13:42;;;;;;;7.50;5.20;;;17.30;1.00;;;;;;4982806;28;20463;-85
2022/02/28 13:16:09;;;;;;;5.83;5.23;;;16.00;1.00;;;;;;4988211;28;20432;-87
2022/02/28 13:18:36;;;;;;;7.30;5.53;;;15.30;1.00;;;;;;4987633;28;20471;-85
2022/02/28 13:21:06;;;;;;;6.80;5.17;;;13.90;1.00;;;;;;4980328;28;20462;-83
2022/02/28 13:23:34;;;;;;;9.43;6.30;;;12.90;1.00;;;;;;4978784;28;20477;-84
2022/02/28 13:26:01;;;;;;;10.30;5.53;;;12.50;1.00;;;;;;4983181;28;20467;-84
2022/02/28 13:28:33;;;;;;;11.03;8.13;;;12.90;1.00;;;;;;4983782;28;20443;-85
2022/02/28 13:31:02;;;;;;;10.13;7.50;;;13.70;1.00;;;;;;4979490;28;20554;-86
2022/02/28 13:33:31;;;;;;;8.10;6.20;;;13.60;1.00;;;;;;4985453;28;20475;-84
2022/02/28 13:35:59;;;;;;;11.93;7.07;;;13.40;1.00;;;;;;4983173;28;20469;-85
2022/02/28 13:38:26;;;;;;;8.67;5.90;;;12.60;1.00;;;;;;4981124;28;21243;-87
2022/02/28 13:40:54;;;;;;;9.93;6.90;;;12.60;1.00;;;;;;4983281;28;20456;-86
2022/02/28 13:43:30;;;;;;;7.93;6.17;;;13.50;1.00;;;;;;4995178;28;20454;-89
2022/02/28 13:46:06;;;;;;;9.83;7.30;;;13.60;1.00;;;;;;4995025;28;20444;-88
2022/02/28 13:48:37;;;;;;;9.50;7.03;;;12.40;1.00;;;;;;4995227;28;20490;-89
2022/02/28 13:51:19;;;;;;;12.00;7.33;;;11.20;1.00;;;;;;5002267;28;20460;-87
2022/02/28 13:53:56;;;;;;;12.47;7.83;;;10.50;1.00;;;;;;4999041;28;20533;-87
2022/02/28 13:56:28;;;;;;;10.52;6.82;;;9.90;1.00;;;;;;4999651;28;20490;-87
2022/02/28 13:59:09;;;;;;;7.57;6.30;;;9.50;1.00;;;;;;4986746;28;20229;-88
2022/02/28 14:01:51;;;;;;;14.60;7.40;;;9.30;1.00;;;;;;4996940;28;20535;-88
2022/02/28 14:04:22;;;;;;;15.73;12.85;;;9.10;1.00;;;;;;4999437;28;20424;-87
2022/02/28 14:06:59;;;;;;;11.03;7.13;;;8.90;1.00;;;;;;4995900;28;20274;-88
2022/02/28 14:09:28;;;;;;;10.48;7.60;;;8.80;1.00;;;;;;5000875;28;20458;-89
2022/02/28 14:11:55;;;;;;;9.40;6.57;;;8.70;1.00;;;;;;4994435;28;20236;-86
2022/02/28 14:14:24;;;;;;;8.98;6.85;;;8.70;1.00;;;;;;5001274;28;20774;-87
2022/02/28 14:16:59;;;;;;;10.27;6.75;;;8.60;1.00;;;;;;4996829;28;20231;-88
2022/02/28 14:19:38;;;;;;;9.35;7.07;;;8.40;1.00;;;;;;4998123;28;20223;-87
2022/02/28 14:22:08;;;;;;;10.23;7.13;;;8.30;1.00;;;;;;4993214;28;20298;-88
2022/02/28 14:24:48;;;;;;;11.20;8.10;;;8.10;1.00;;;;;;5009688;28;20217;-89
2022/02/28 14:27:17;;;;;;;9.95;7.05;;;8.10;1.00;;;;;;4996500;28;20243;-88
2022/02/28 14:29:44;;;;;;;10.07;7.65;;;7.90;1.00;;;;;;4998492;28;20811;-87
2022/02/28 14:32:15;;;;;;;10.50;7.07;;;7.60;1.00;;;;;;4996853;28;20232;-89
2022/02/28 14:34:48;;;;;;;12.30;6.65;;;7.60;1.00;;;;;;4993444;28;22100;-88
2022/02/28 14:37:15;;;;;;;14.40;7.93;;;7.70;1.00;;;;;;4991718;28;21015;-87
2022/02/28 14:39:44;;;;;;;13.15;7.80;;;7.60;1.00;;;;;;4994735;28;20275;-88
2022/02/28 14:42:13;;;;;;;9.75;7.60;;;7.50;1.00;;;;;;4997659;28;20216;-88
2022/02/28 14:44:43;;;;;;;10.00;6.85;;;7.40;1.00;;;;;;4991317;28;20221;-88
2022/02/28 14:47:11;;;;;;;12.00;7.68;;;7.50;1.00;;;;;;4992249;28;20796;-88
2022/02/28 14:49:42;;;;;;;9.15;7.10;;;7.30;1.00;;;;;;4989285;28;20252;-89
2022/02/28 14:52:15;;;;;;;10.63;8.10;;;7.20;1.00;;;;;;5003585;28;20233;-88
2022/02/28 14:54:44;;;;;;;10.85;7.45;;;7.30;1.00;;;;;;4989374;28;20221;-87
2022/02/28 14:57:12;;;;;;;14.98;8.02;;;7.30;1.00;;;;;;4996605;28;20306;-88
2022/02/28 14:59:41;;;;;;;12.00;7.90;;;7.30;1.00;;;;;;4990329;28;20265;-88
2022/02/28 15:02:10;;;;;;;12.60;8.80;;;7.40;1.00;;;;;;4986945;28;20307;-87
2022/02/28 15:04:37;;;;;;;13.45;9.20;;;7.40;1.00;;;;;;4989327;28;20223;-87
2022/02/28 15:07:04;;;;;;;13.95;8.60;;;7.40;1.00;;;;;;5011002;28;20228;-87
2022/02/28 15:09:33;;;;;;;13.25;8.45;;;7.40;1.00;;;;;;5016507;28;20219;-87
2022/02/28 15:12:01;;;;;;;14.45;8.70;;;7.40;1.00;;;;;;5014126;28;20216;-87